createdAt,value
2019-05-25T00:01:20.494Z,1.60
2019-05-25T00:04:10.851Z,1.80
2019-05-25T00:07:13.840Z,1.80
2019-05-25T00:13:32.984Z,2.00
2019-05-25T00:16:23.353Z,1.80
2019-05-25T00:19:06.385Z,1.73
2019-05-25T00:21:56.748Z,1.33
2019-05-25T00:24:40.067Z,1.67
2019-05-25T00:27:23.456Z,1.60
2019-05-25T00:30:13.873Z,1.80
2019-05-25T00:32:56.632Z,1.80
2019-05-25T00:35:47.036Z,1.63
2019-05-25T00:38:30.182Z,1.67
2019-05-25T00:41:20.536Z,1.90
2019-05-25T00:44:03.415Z,1.93
2019-05-25T00:46:53.756Z,1.93
2019-05-25T00:49:36.379Z,1.80
2019-05-25T00:52:26.739Z,1.90
2019-05-25T00:55:29.811Z,1.77
2019-05-25T00:58:20.194Z,1.70
2019-05-25T01:01:02.947Z,1.97
2019-05-25T01:03:53.306Z,1.97
2019-05-25T01:06:36.510Z,2.00
2019-05-25T01:09:26.954Z,1.97
2019-05-25T01:12:10.062Z,1.67
2019-05-25T01:14:52.754Z,1.73
2019-05-25T01:17:43.165Z,1.87
2019-05-25T01:20:26.610Z,2.10
2019-05-25T01:23:17.043Z,2.00
2019-05-25T01:26:00.324Z,2.20
2019-05-25T01:28:43.680Z,2.40
2019-05-25T01:31:34.067Z,2.03
2019-05-25T01:34:16.772Z,1.90
2019-05-25T01:37:12.238Z,2.00
2019-05-25T01:39:54.796Z,2.07
2019-05-25T01:42:45.171Z,2.03
2019-05-25T01:45:28.221Z,2.17
2019-05-25T01:48:18.626Z,2.20
2019-05-25T01:51:01.837Z,2.50
2019-05-25T01:53:52.194Z,2.30
2019-05-25T01:56:34.748Z,2.63
2019-05-25T01:59:25.140Z,2.57
2019-05-25T02:02:08.364Z,2.50
2019-05-25T02:04:58.750Z,2.60
2019-05-25T02:07:42.128Z,2.63
2019-05-25T02:10:32.516Z,2.43
2019-05-25T02:13:15.804Z,3.13
2019-05-25T02:16:06.253Z,2.80
2019-05-25T02:18:49.063Z,2.70
2019-05-25T02:21:39.444Z,3.10
2019-05-25T02:24:42.009Z,2.80
2019-05-25T02:27:25.356Z,2.90
2019-05-25T02:30:36.191Z,2.97
2019-05-25T02:33:19.278Z,2.80
2019-05-25T02:36:09.660Z,3.33
2019-05-25T02:38:52.869Z,2.90
2019-05-25T02:41:43.266Z,3.57
2019-05-25T02:44:33.648Z,2.80
2019-05-25T02:47:36.913Z,2.90
2019-05-25T02:50:27.546Z,3.20
2019-05-25T02:53:29.987Z,3.10
2019-05-25T02:56:20.348Z,3.57
2019-05-25T02:59:03.149Z,3.90
2019-05-25T03:01:53.541Z,3.40
2019-05-25T03:04:36.113Z,3.20
2019-05-25T03:07:46.946Z,3.37
2019-05-25T03:10:30.684Z,3.57
2019-05-25T03:13:21.175Z,3.47
2019-05-25T03:16:04.282Z,3.60
2019-05-25T03:18:54.681Z,3.30
2019-05-25T03:21:38.292Z,3.40
2019-05-25T03:24:28.656Z,3.60
2019-05-25T03:34:05.682Z,3.30
2019-05-25T03:36:56.068Z,3.57
2019-05-25T03:39:39.149Z,3.43
2019-05-25T03:42:29.509Z,3.80
2019-05-25T03:45:12.543Z,3.53
2019-05-25T03:48:02.945Z,3.47
2019-05-25T03:50:46.019Z,3.77
2019-05-25T03:53:36.442Z,3.37
2019-05-25T03:56:21.465Z,3.90
2019-05-25T03:59:11.562Z,3.83
2019-05-25T04:01:54.739Z,3.80
2019-05-25T04:04:45.107Z,3.73
2019-05-25T04:07:27.975Z,3.90
2019-05-25T04:10:18.331Z,3.60
2019-05-25T04:13:01.618Z,3.77
2019-05-25T04:15:52.027Z,3.53
2019-05-25T04:18:35.320Z,4.00
2019-05-25T04:21:25.730Z,4.17
2019-05-25T04:24:10.712Z,4.00
2019-05-25T04:27:01.053Z,3.50
2019-05-25T04:29:44.098Z,3.40
2019-05-25T04:32:34.466Z,3.93
2019-05-25T04:35:17.559Z,3.80
2019-05-25T04:38:07.945Z,3.43
2019-05-25T04:40:50.512Z,3.70
2019-05-25T04:43:40.877Z,3.70
2019-05-25T04:46:24.202Z,3.53
2019-05-25T04:49:14.580Z,3.23
2019-05-25T04:51:57.323Z,3.30
2019-05-25T04:54:47.750Z,3.70
2019-05-25T04:57:31.251Z,3.63
2019-05-25T05:00:21.687Z,3.63
2019-05-25T05:03:04.859Z,3.80
2019-05-25T05:05:55.248Z,3.97
2019-05-25T05:08:38.711Z,3.17
2019-05-25T05:11:29.290Z,3.50
2019-05-25T05:14:12.742Z,3.20
2019-05-25T05:17:03.357Z,3.70
2019-05-25T05:19:46.301Z,3.83
2019-05-25T05:22:36.650Z,3.83
2019-05-25T05:25:19.406Z,4.10
2019-05-25T05:28:02.230Z,3.90
2019-05-25T05:30:52.623Z,4.40
2019-05-25T05:33:35.259Z,4.07
2019-05-25T05:40:21.257Z,3.73
2019-05-25T05:43:05.327Z,4.50
2019-05-25T05:46:16.320Z,4.10
2019-05-25T05:48:59.752Z,4.20
2019-05-25T05:52:29.973Z,4.40
2019-05-25T05:55:13.228Z,4.00
2019-05-25T05:58:03.625Z,3.80
2019-05-25T06:00:47.207Z,3.97
2019-05-25T06:03:37.634Z,3.83
2019-05-25T06:06:41.148Z,3.80
2019-05-25T06:09:31.553Z,4.00
2019-05-25T06:12:14.136Z,3.77
2019-05-25T06:15:05.109Z,4.37
2019-05-25T06:17:47.860Z,4.03
2019-05-25T06:20:38.291Z,4.43
2019-05-25T06:23:21.491Z,3.63
2019-05-25T06:26:11.905Z,3.60
2019-05-25T06:28:55.484Z,4.30
2019-05-25T06:31:45.892Z,4.27
2019-05-25T06:34:29.190Z,3.97
2019-05-25T06:37:19.597Z,3.80
2019-05-25T06:40:02.886Z,4.60
2019-05-25T06:42:53.274Z,4.03
2019-05-25T06:45:36.999Z,3.60
2019-05-25T06:48:27.479Z,3.90
2019-05-25T06:51:17.881Z,4.00
2019-05-25T06:54:20.548Z,3.90
2019-05-25T06:57:10.968Z,3.83
2019-05-25T06:59:53.918Z,4.00
2019-05-25T07:02:44.436Z,4.00
2019-05-25T07:05:47.869Z,4.20
2019-05-25T07:08:38.271Z,3.90
2019-05-25T07:11:21.411Z,4.23
2019-05-25T07:14:11.815Z,3.97
2019-05-25T07:16:54.410Z,4.10
2019-05-25T07:19:44.787Z,3.70
2019-05-25T07:22:27.940Z,4.10
2019-05-25T07:25:20.430Z,4.33
2019-05-25T07:28:23.339Z,3.57
2019-05-25T07:31:06.827Z,4.00
2019-05-25T07:33:57.217Z,3.90
2019-05-25T07:36:39.746Z,4.00
2019-05-25T07:39:30.170Z,4.47
2019-05-25T07:42:13.098Z,4.77
2019-05-25T07:45:03.896Z,3.90
2019-05-25T07:47:47.118Z,4.17
2019-05-25T07:50:37.513Z,3.77
2019-05-25T07:53:20.221Z,4.17
2019-05-25T07:56:10.679Z,3.90
2019-05-25T07:58:53.335Z,3.57
2019-05-25T08:01:43.763Z,3.83
2019-05-25T08:04:27.196Z,3.53
2019-05-25T08:07:17.619Z,3.40
2019-05-25T08:10:19.235Z,3.60
2019-05-25T08:13:09.643Z,2.90
2019-05-25T08:15:53.150Z,2.93
2019-05-25T08:18:43.565Z,2.53
2019-05-25T08:21:26.864Z,2.93
2019-05-25T08:24:17.266Z,2.53
2019-05-25T08:27:19.936Z,2.60
2019-05-25T08:30:02.591Z,2.47
2019-05-25T08:32:52.946Z,2.50
2019-05-25T08:35:36.061Z,2.37
2019-05-25T08:38:26.442Z,2.23
2019-05-25T08:41:09.089Z,2.40
2019-05-25T08:43:59.512Z,2.40
2019-05-25T08:46:42.553Z,2.53
2019-05-25T08:49:32.992Z,2.60
2019-05-25T08:52:18.066Z,2.20
2019-05-25T08:55:08.592Z,2.70
2019-05-25T08:57:51.369Z,2.20
2019-05-25T09:00:42.673Z,2.70
2019-05-25T09:03:25.288Z,2.20
2019-05-25T09:06:15.679Z,1.93
2019-05-25T09:08:58.761Z,2.60
2019-05-25T09:11:49.121Z,2.53
2019-05-25T09:14:32.155Z,1.90
2019-05-25T09:17:18.296Z,2.07
2019-05-25T09:20:19.718Z,2.70
2019-05-25T09:23:10.045Z,2.00
2019-05-25T09:25:53.207Z,2.10
2019-05-25T09:28:46.373Z,2.20
2019-05-25T09:31:29.240Z,1.73
2019-05-25T09:34:20.165Z,2.00
2019-05-25T09:37:19.720Z,2.00
2019-05-25T09:40:19.296Z,2.13
2019-05-25T09:43:09.686Z,2.37
2019-05-25T09:46:03.151Z,2.00
2019-05-25T09:49:05.474Z,2.00
2019-05-25T09:52:20.046Z,2.00
2019-05-25T09:55:24.455Z,2.07
2019-05-25T09:58:14.910Z,2.30
2019-05-25T10:01:00.721Z,1.90
2019-05-25T10:04:11.016Z,1.97
2019-05-25T10:07:18.141Z,2.90
2019-05-25T10:10:28.952Z,2.50
2019-05-25T10:13:12.306Z,2.30
2019-05-25T10:16:02.795Z,2.27
2019-05-25T10:18:45.878Z,2.07
2019-05-25T10:21:36.243Z,2.40
2019-05-25T10:24:19.742Z,2.27
2019-05-25T10:27:10.139Z,2.70
2019-05-25T10:29:52.763Z,2.40
2019-05-25T10:32:43.225Z,2.40
2019-05-25T10:35:26.388Z,2.63
2019-05-25T10:38:16.792Z,2.20
2019-05-25T10:40:59.915Z,2.70
2019-05-25T10:43:50.281Z,2.27
2019-05-25T10:46:33.574Z,2.60
2019-05-25T10:49:24.087Z,2.20
2019-05-25T10:52:11.374Z,2.40
2019-05-25T10:55:02.101Z,2.53
2019-05-25T10:58:05.953Z,2.40
2019-05-25T11:00:56.421Z,2.40
2019-05-25T11:03:39.138Z,2.40
2019-05-25T11:06:29.541Z,2.20
2019-05-25T11:09:12.188Z,2.03
2019-05-25T11:12:02.695Z,2.10
2019-05-25T11:14:45.981Z,2.40
2019-05-25T11:17:29.089Z,2.87
2019-05-25T11:20:20.084Z,2.10
2019-05-25T11:23:03.058Z,2.40
2019-05-25T11:25:53.474Z,2.53
2019-05-25T11:28:36.243Z,2.70
2019-05-25T11:31:28.219Z,2.80
2019-05-25T11:34:18.634Z,2.90
2019-05-25T11:37:01.385Z,2.70
2019-05-25T11:39:51.784Z,3.33
2019-05-25T11:42:35.267Z,3.10
2019-05-25T11:45:25.765Z,3.33
2019-05-25T11:48:09.198Z,3.10
2019-05-25T11:50:59.608Z,2.97
2019-05-25T11:54:02.959Z,2.60
2019-05-25T11:56:53.367Z,2.53
2019-05-25T11:59:36.470Z,3.17
2019-05-25T12:02:26.865Z,2.40
2019-05-25T12:05:10.259Z,2.70
2019-05-25T12:08:00.702Z,2.37
2019-05-25T12:10:44.353Z,3.17
2019-05-25T12:13:34.913Z,3.13
2019-05-25T12:16:20.561Z,2.50
2019-05-25T12:22:21.206Z,2.80
2019-05-25T12:25:12.053Z,2.50
2019-05-25T12:27:54.662Z,2.60
2019-05-25T12:30:45.067Z,2.03
2019-05-25T12:33:47.841Z,2.33
2019-05-25T12:36:38.420Z,2.43
2019-05-25T12:39:21.571Z,2.20
2019-05-25T12:42:11.962Z,2.20
2019-05-25T12:44:55.485Z,2.40
2019-05-25T12:47:45.843Z,2.13
2019-05-25T12:50:29.191Z,2.20
2019-05-25T12:53:19.563Z,2.20
2019-05-25T12:56:02.203Z,2.30
2019-05-25T13:01:55.617Z,2.23
2019-05-25T13:04:45.981Z,2.43
2019-05-25T13:07:29.020Z,2.30
2019-05-25T13:13:15.936Z,2.33
2019-05-25T13:15:58.518Z,4.87
2019-05-25T13:19:01.273Z,3.60
2019-05-25T13:21:53.517Z,2.40
2019-05-25T13:24:43.988Z,2.10
2019-05-25T13:27:26.654Z,2.00
2019-05-25T13:30:37.504Z,2.00
2019-05-25T13:33:22.635Z,2.43
2019-05-25T13:36:32.108Z,2.30
2019-05-25T13:39:15.516Z,2.10
2019-05-25T13:42:06.034Z,1.87
2019-05-25T13:44:48.789Z,1.80
2019-05-25T13:47:39.268Z,2.27
2019-05-25T13:50:22.212Z,2.23
2019-05-25T13:53:12.606Z,1.90
2019-05-25T13:55:57.623Z,2.00
2019-05-25T13:58:48.031Z,1.80
2019-05-25T14:01:50.991Z,1.90
2019-05-25T14:04:41.475Z,1.77
2019-05-25T14:07:24.101Z,1.90
2019-05-25T14:10:33.340Z,1.80
2019-05-25T14:13:16.464Z,2.60
2019-05-25T14:16:07.644Z,2.97
2019-05-25T14:19:11.057Z,2.40
2019-05-25T14:22:01.556Z,2.57
2019-05-25T14:24:44.145Z,2.30
2019-05-25T14:27:34.533Z,2.40
2019-05-25T14:30:17.824Z,2.57
2019-05-25T14:33:08.238Z,2.20
2019-05-25T14:35:51.648Z,1.97
2019-05-25T14:38:42.078Z,2.00
2019-05-25T14:41:25.854Z,1.87
2019-05-25T14:44:16.252Z,2.13
2019-05-25T14:46:59.469Z,2.37
2019-05-25T14:49:49.860Z,1.97
2019-05-25T14:52:32.395Z,4.37
2019-05-25T14:55:22.771Z,5.07
2019-05-25T14:58:05.291Z,4.07
2019-05-25T15:00:55.660Z,7.30
2019-05-25T15:03:38.679Z,9.90
2019-05-25T15:06:29.107Z,5.97
2019-05-25T15:09:12.632Z,4.00
2019-05-25T15:12:02.995Z,2.97
2019-05-25T15:14:45.661Z,1.90
2019-05-25T15:17:37.475Z,2.00
2019-05-25T15:20:41.096Z,19.53
2019-05-25T15:23:31.468Z,6.67
2019-05-25T15:26:16.582Z,6.93
2019-05-25T15:28:59.288Z,7.70
2019-05-25T15:31:49.670Z,7.90
2019-05-25T15:34:33.045Z,5.40
2019-05-25T15:37:23.425Z,2.73
2019-05-25T15:40:08.406Z,2.20
2019-05-25T15:42:58.763Z,1.83
2019-05-25T15:45:41.394Z,1.50
2019-05-25T15:48:31.751Z,1.57
2019-05-25T15:51:14.915Z,1.50
2019-05-25T15:54:10.135Z,2.73
2019-05-25T15:57:09.725Z,3.80
2019-05-25T16:00:00.105Z,2.63
2019-05-25T16:02:43.531Z,3.60
2019-05-25T16:05:33.905Z,1.80
2019-05-25T16:08:17.401Z,1.93
2019-05-25T16:11:07.797Z,1.60
2019-05-25T16:13:51.056Z,1.50
2019-05-25T16:16:41.471Z,1.33
2019-05-25T16:19:24.632Z,1.47
2019-05-25T16:22:08.126Z,1.90
2019-05-25T16:24:58.535Z,2.50
2019-05-25T16:28:01.853Z,1.60
2019-05-25T16:30:52.245Z,1.70
2019-05-25T16:33:35.321Z,1.37
2019-05-25T16:36:25.679Z,1.80
2019-05-25T16:39:16.075Z,1.60
2019-05-25T16:41:59.060Z,1.40
2019-05-25T16:44:49.507Z,1.70
2019-05-25T16:47:32.789Z,1.53
2019-05-25T16:50:23.226Z,1.70
2019-05-25T16:53:26.627Z,1.90
2019-05-25T16:56:16.956Z,1.77
2019-05-25T16:59:00.313Z,1.50
2019-05-25T17:01:50.713Z,1.70
2019-05-25T17:04:33.252Z,1.97
2019-05-25T17:07:23.651Z,1.90
2019-05-25T17:10:07.253Z,1.80
2019-05-25T17:12:57.604Z,1.90
2019-05-25T17:15:40.590Z,1.80
2019-05-25T17:18:30.979Z,1.77
2019-05-25T17:21:13.659Z,1.80
2019-05-25T17:24:04.080Z,1.73
2019-05-25T17:26:47.538Z,1.90
2019-05-25T17:29:30.443Z,2.20
2019-05-25T17:32:20.820Z,2.60
2019-05-25T17:35:04.732Z,2.63
2019-05-25T17:37:55.101Z,1.87
2019-05-25T17:40:37.907Z,2.20
2019-05-25T17:43:28.315Z,1.83
2019-05-25T17:46:11.727Z,2.10
2019-05-25T17:49:02.092Z,2.07
2019-05-25T17:51:44.660Z,1.77
2019-05-25T17:54:35.039Z,1.70
2019-05-25T17:57:17.714Z,1.60
2019-05-25T18:03:36.902Z,1.90
2019-05-25T18:06:27.249Z,1.87
2019-05-25T18:09:10.102Z,1.70
2019-05-25T18:12:00.559Z,1.40
2019-05-25T18:14:43.296Z,1.40
2019-05-25T18:17:33.685Z,1.40
2019-05-25T18:20:16.383Z,1.60
2019-05-25T18:22:59.024Z,1.70
2019-05-25T18:25:49.362Z,1.53
2019-05-25T18:28:32.371Z,1.90
2019-05-25T18:31:23.045Z,1.20
2019-05-25T18:34:21.186Z,1.40
2019-05-25T18:36:58.114Z,1.73
2019-05-25T18:39:41.573Z,2.77
2019-05-25T18:42:31.970Z,1.90
2019-05-25T18:45:14.801Z,2.00
2019-05-25T18:48:05.454Z,1.90
2019-05-25T18:50:55.887Z,1.60
2019-05-25T18:53:39.303Z,2.03
2019-05-25T18:56:29.675Z,2.47
2019-05-25T18:59:12.563Z,2.40
2019-05-25T19:02:02.982Z,2.40
2019-05-25T19:04:58.670Z,2.13
2019-05-25T19:07:38.060Z,1.50
2019-05-25T19:10:20.653Z,1.40
2019-05-25T19:13:11.145Z,1.30
2019-05-25T19:15:54.086Z,1.37
2019-05-25T19:18:44.504Z,1.30
2019-05-25T19:21:27.549Z,1.23
2019-05-25T19:24:17.906Z,1.40
2019-05-25T19:27:01.353Z,1.90
2019-05-25T19:29:51.787Z,1.50
2019-05-25T19:32:34.758Z,1.47
2019-05-25T19:35:25.134Z,1.43
2019-05-25T19:38:08.549Z,1.50
2019-05-25T19:40:58.933Z,2.53
2019-05-25T19:43:42.414Z,2.30
2019-05-25T19:46:32.791Z,1.63
2019-05-25T19:49:16.126Z,1.83
2019-05-25T19:55:35.953Z,1.63
2019-05-25T19:58:26.340Z,1.70
2019-05-25T20:01:09.695Z,1.50
2019-05-25T20:04:00.092Z,2.00
2019-05-25T20:06:45.555Z,1.60
2019-05-25T20:09:35.961Z,1.90
2019-05-25T20:12:38.937Z,1.90
2019-05-25T20:15:30.224Z,1.90
2019-05-25T20:18:13.329Z,1.93
2019-05-25T20:21:04.635Z,1.60
2019-05-25T20:23:47.309Z,1.83
2019-05-25T20:26:37.668Z,1.50
2019-05-25T20:29:21.029Z,1.80
2019-05-25T20:32:11.416Z,2.00
2019-05-25T20:34:54.771Z,2.20
2019-05-25T20:37:45.803Z,5.87
2019-05-25T20:40:48.587Z,3.90
2019-05-25T20:43:39.053Z,2.97
2019-05-25T20:46:21.823Z,2.80
2019-05-25T20:49:12.262Z,3.10
2019-05-25T20:51:55.478Z,3.57
2019-05-25T20:54:45.930Z,3.20
2019-05-25T20:57:28.831Z,4.17
2019-05-25T21:00:24.244Z,4.30
2019-05-25T21:03:07.254Z,3.87
2019-05-25T21:05:57.622Z,3.47
2019-05-25T21:08:40.731Z,2.87
2019-05-25T21:11:31.115Z,2.90
2019-05-25T21:14:13.904Z,2.60
2019-05-25T21:17:04.262Z,2.50
2019-05-25T21:19:46.835Z,2.77
2019-05-25T21:22:37.320Z,2.80
2019-05-25T21:25:20.224Z,2.90
2019-05-25T21:28:10.633Z,2.43
2019-05-25T21:31:00.985Z,2.87
2019-05-25T21:34:03.532Z,2.70
2019-05-25T21:36:53.878Z,2.87
2019-05-25T21:39:44.235Z,2.70
2019-05-25T21:42:27.274Z,2.80
2019-05-25T21:48:46.468Z,2.53
2019-05-25T21:51:36.856Z,2.50
2019-05-25T21:54:20.271Z,3.00
2019-05-25T21:57:10.628Z,3.00
2019-05-25T21:59:53.540Z,3.47
2019-05-25T22:02:44.104Z,4.37
2019-05-25T22:05:30.427Z,4.40
2019-05-25T22:08:18.732Z,4.27
2019-05-25T22:11:01.397Z,4.53
2019-05-25T22:13:51.760Z,3.20
2019-05-25T22:16:34.871Z,3.20
2019-05-25T22:19:25.260Z,4.07
2019-05-25T22:22:16.878Z,3.40
2019-05-25T22:25:00.390Z,3.40
2019-05-25T22:27:51.017Z,5.37
2019-05-25T22:30:34.151Z,10.37
2019-05-25T22:33:17.474Z,4.40
2019-05-25T22:36:07.888Z,5.67
2019-05-25T22:38:50.699Z,5.40
2019-05-25T22:41:41.110Z,5.00
2019-05-25T22:44:24.467Z,4.30
2019-05-25T22:47:14.835Z,4.50
2019-05-25T22:49:57.663Z,6.00
2019-05-25T22:52:48.050Z,4.70
2019-05-25T22:55:30.979Z,5.30
2019-05-25T22:58:21.362Z,5.60
2019-05-25T23:01:04.521Z,5.07
2019-05-25T23:03:54.940Z,5.00
2019-05-25T23:06:37.508Z,4.83
2019-05-25T23:09:27.921Z,4.93
2019-05-25T23:12:11.198Z,5.20
2019-05-25T23:15:01.614Z,4.97
2019-05-25T23:17:44.403Z,5.40
2019-05-25T23:20:36.722Z,5.70
2019-05-25T23:23:39.703Z,5.67
2019-05-25T23:26:30.084Z,5.57
2019-05-25T23:29:13.326Z,5.50
2019-05-25T23:32:03.717Z,5.40
2019-05-25T23:34:46.291Z,4.90
2019-05-25T23:37:36.685Z,5.27
2019-05-25T23:40:19.387Z,4.80
2019-05-25T23:43:09.752Z,5.00
2019-05-25T23:45:52.385Z,5.67
2019-05-25T23:48:42.740Z,5.50
2019-05-25T23:51:25.511Z,5.30
2019-05-25T23:54:15.884Z,5.53
2019-05-25T23:57:06.282Z,4.90
2019-05-25T23:59:56.694Z,5.07
